createdAt,value
2023-12-07T00:02:11.567Z,99.90
2023-12-07T00:04:41.810Z,99.90
2023-12-07T00:07:12.864Z,99.90
2023-12-07T00:09:42.749Z,99.90
2023-12-07T00:14:43.501Z,99.90
2023-12-07T00:19:43.261Z,99.90
2023-12-07T00:22:14.293Z,99.90
2023-12-07T00:24:43.967Z,99.90
2023-12-07T00:27:13.725Z,99.90
2023-12-07T00:29:43.591Z,99.90
2023-12-07T00:32:13.638Z,99.90
2023-12-07T00:34:43.489Z,99.90
2023-12-07T00:37:15.694Z,99.90
2023-12-07T00:39:45.712Z,99.90
2023-12-07T00:42:15.644Z,99.90
2023-12-07T00:44:45.639Z,99.90
2023-12-07T00:47:15.450Z,99.90
2023-12-07T00:49:45.153Z,99.90
2023-12-07T00:52:16.944Z,99.90
2023-12-07T00:54:46.832Z,99.90
2023-12-07T00:57:16.953Z,99.90
2023-12-07T00:59:46.962Z,99.90
2023-12-07T01:02:16.615Z,99.90
2023-12-07T01:04:46.676Z,99.90
2023-12-07T01:07:18.565Z,99.90
2023-12-07T01:09:48.877Z,99.90
2023-12-07T01:12:18.896Z,99.90
2023-12-07T01:14:48.808Z,99.90
2023-12-07T01:17:18.412Z,99.90
2023-12-07T01:19:50.007Z,99.90
2023-12-07T01:22:24.748Z,99.90
2023-12-07T01:24:54.777Z,99.90
2023-12-07T01:27:25.130Z,99.90
2023-12-07T01:29:55.009Z,99.90
2023-12-07T01:32:24.735Z,99.90
2023-12-07T01:34:54.982Z,99.90
2023-12-07T01:37:26.368Z,99.90
2023-12-07T01:39:56.161Z,99.90
2023-12-07T01:42:26.141Z,99.90
2023-12-07T01:44:56.690Z,99.90
2023-12-07T01:47:26.704Z,99.90
2023-12-07T01:49:56.924Z,99.90
2023-12-07T01:52:31.009Z,99.90
2023-12-07T01:55:01.785Z,99.90
2023-12-07T01:57:33.006Z,99.90
2023-12-07T02:00:02.867Z,99.90
2023-12-07T02:02:34.166Z,99.90
2023-12-07T02:05:04.911Z,99.90
2023-12-07T02:07:38.019Z,99.90
2023-12-07T02:10:08.962Z,99.90
2023-12-07T02:15:10.089Z,99.90
2023-12-07T02:17:52.745Z,99.90
2023-12-07T02:20:29.280Z,99.90
2023-12-07T02:23:04.569Z,99.90
2023-12-07T02:25:39.274Z,99.90
2023-12-07T02:28:10.412Z,99.90
2023-12-07T02:30:40.499Z,99.90
2023-12-07T02:33:10.481Z,99.90
2023-12-07T02:35:41.866Z,99.90
2023-12-07T02:38:12.085Z,99.90
2023-12-07T02:40:43.375Z,99.90
2023-12-07T02:45:45.819Z,99.90
2023-12-07T02:48:15.627Z,99.90
2023-12-07T02:53:16.571Z,99.90
2023-12-07T03:00:48.728Z,99.90
2023-12-07T03:03:19.508Z,99.90
2023-12-07T03:05:49.990Z,99.90
2023-12-07T03:10:50.199Z,99.90
2023-12-07T03:13:21.750Z,99.90
2023-12-07T03:15:52.158Z,99.90
2023-12-07T03:18:21.855Z,99.90
2023-12-07T03:20:52.713Z,99.90
2023-12-07T03:25:52.923Z,99.90
2023-12-07T03:28:24.449Z,99.90
2023-12-07T03:30:54.526Z,99.90
2023-12-07T03:33:24.626Z,99.90
2023-12-07T03:35:54.949Z,99.90
2023-12-07T03:38:24.798Z,99.90
2023-12-07T03:40:54.578Z,99.90
2023-12-07T03:43:26.089Z,99.90
2023-12-07T03:45:55.820Z,99.90
2023-12-07T03:48:25.582Z,99.90
2023-12-07T03:50:55.259Z,99.90
2023-12-07T03:53:24.876Z,99.90
2023-12-07T03:55:57.838Z,99.90
2023-12-07T03:58:29.351Z,99.90
2023-12-07T04:00:59.273Z,99.90
2023-12-07T04:03:29.263Z,99.90
2023-12-07T04:06:00.313Z,99.90
2023-12-07T04:08:30.191Z,99.90
2023-12-07T04:10:59.710Z,99.90
2023-12-07T04:13:31.002Z,99.90
2023-12-07T04:16:01.091Z,99.90
2023-12-07T04:18:31.011Z,99.90
2023-12-07T04:21:01.409Z,99.90
2023-12-07T04:23:31.417Z,99.90
2023-12-07T04:26:01.143Z,99.90
2023-12-07T04:28:32.685Z,99.90
2023-12-07T04:31:03.138Z,99.90
2023-12-07T04:33:32.956Z,99.90
2023-12-07T04:36:02.723Z,99.90
2023-12-07T04:38:33.772Z,99.90
2023-12-07T04:41:04.499Z,99.90
2023-12-07T04:43:35.736Z,99.90
2023-12-07T04:46:05.722Z,99.90
2023-12-07T04:48:35.276Z,99.90
2023-12-07T04:51:06.005Z,99.90
2023-12-07T04:53:35.808Z,99.90
2023-12-07T04:56:05.516Z,99.90
2023-12-07T04:58:37.100Z,99.90
2023-12-07T05:01:07.879Z,99.90
2023-12-07T05:03:37.875Z,99.90
2023-12-07T05:06:09.178Z,99.90
2023-12-07T05:08:39.316Z,99.90
2023-12-07T05:11:09.442Z,99.90
2023-12-07T05:13:40.673Z,99.90
2023-12-07T05:16:13.084Z,99.90
2023-12-07T05:18:43.105Z,99.90
2023-12-07T05:21:13.253Z,99.90
2023-12-07T05:23:42.695Z,99.90
2023-12-07T05:26:12.421Z,99.90
2023-12-07T05:28:44.044Z,99.90
2023-12-07T05:31:21.061Z,99.90
2023-12-07T05:33:51.780Z,99.90
2023-12-07T05:36:21.598Z,99.90
2023-12-07T05:38:51.398Z,99.90
2023-12-07T05:41:21.176Z,99.90
2023-12-07T05:43:52.729Z,99.90
2023-12-07T05:46:22.465Z,99.90
2023-12-07T05:48:53.782Z,99.90
2023-12-07T05:51:26.455Z,99.90
2023-12-07T05:53:56.098Z,99.90
2023-12-07T05:56:27.491Z,99.90
2023-12-07T05:58:58.752Z,99.90
2023-12-07T06:01:28.860Z,99.90
2023-12-07T06:03:59.030Z,99.90
2023-12-07T06:06:29.320Z,99.90
2023-12-07T06:08:58.950Z,99.90
2023-12-07T06:11:29.259Z,99.90
2023-12-07T06:14:01.333Z,99.90
2023-12-07T06:16:31.374Z,99.90
2023-12-07T06:19:01.239Z,99.90
2023-12-07T06:21:31.575Z,99.90
2023-12-07T06:24:01.713Z,99.90
2023-12-07T06:26:32.107Z,99.90
2023-12-07T06:29:05.120Z,99.90
2023-12-07T06:31:35.073Z,99.90
2023-12-07T06:36:34.862Z,99.90
2023-12-07T06:39:04.758Z,99.90
2023-12-07T06:41:35.611Z,99.90
2023-12-07T06:44:06.858Z,99.90
2023-12-07T06:46:36.789Z,99.90
2023-12-07T06:49:06.537Z,99.90
2023-12-07T06:51:37.190Z,99.90
2023-12-07T06:54:07.229Z,99.90
2023-12-07T06:56:37.329Z,99.90
2023-12-07T06:59:08.280Z,99.90
2023-12-07T07:01:39.419Z,99.90
2023-12-07T07:04:10.141Z,99.90
2023-12-07T07:06:39.861Z,99.90
2023-12-07T07:09:09.473Z,99.90
2023-12-07T07:11:39.703Z,99.90
2023-12-07T07:14:10.819Z,99.90
2023-12-07T07:16:40.781Z,99.90
2023-12-07T07:19:10.647Z,99.90
2023-12-07T07:21:40.578Z,99.90
2023-12-07T07:24:10.492Z,99.90
2023-12-07T07:26:40.109Z,99.90
2023-12-07T07:29:11.243Z,99.90
2023-12-07T07:31:41.312Z,99.90
2023-12-07T07:34:11.151Z,99.90
2023-12-07T07:36:40.784Z,99.90
2023-12-07T07:39:10.424Z,99.90
2023-12-07T07:41:40.144Z,99.90
2023-12-07T07:44:11.344Z,99.90
2023-12-07T07:46:43.306Z,99.90
2023-12-07T07:49:13.247Z,99.90
2023-12-07T07:51:43.393Z,99.90
2023-12-07T07:54:22.446Z,99.90
2023-12-07T07:57:12.027Z,99.90
2023-12-07T07:59:53.421Z,99.90
2023-12-07T08:02:26.731Z,99.90
2023-12-07T08:04:58.704Z,99.90
2023-12-07T08:07:30.551Z,99.90
2023-12-07T08:10:00.590Z,99.90
2023-12-07T08:12:30.477Z,99.90
2023-12-07T08:15:02.032Z,99.90
2023-12-07T08:17:32.273Z,99.90
2023-12-07T08:20:01.931Z,99.90
2023-12-07T08:22:32.220Z,99.90
2023-12-07T08:25:08.782Z,99.90
2023-12-07T08:27:41.776Z,99.90
2023-12-07T08:30:14.121Z,99.90
2023-12-07T08:32:43.995Z,99.90
2023-12-07T08:35:13.473Z,99.90
2023-12-07T08:37:42.937Z,99.90
2023-12-07T08:40:16.784Z,99.90
2023-12-07T08:42:52.501Z,99.90
2023-12-07T08:45:25.271Z,99.90
2023-12-07T08:47:54.935Z,99.90
2023-12-07T08:50:25.306Z,99.90
2023-12-07T08:52:59.869Z,99.90
2023-12-07T08:55:34.357Z,99.90
2023-12-07T08:58:05.807Z,99.90
2023-12-07T09:00:37.256Z,99.90
2023-12-07T09:03:07.081Z,99.90
2023-12-07T09:05:36.764Z,99.90
2023-12-07T09:08:06.983Z,99.90
2023-12-07T09:10:36.509Z,99.90
2023-12-07T09:13:07.998Z,99.30
2023-12-07T09:15:40.000Z,99.60
2023-12-07T09:18:10.003Z,96.20
2023-12-07T09:20:47.623Z,96.00
2023-12-07T09:23:17.925Z,95.20
2023-12-07T09:25:48.606Z,93.80
2023-12-07T09:28:18.416Z,93.70
2023-12-07T09:30:49.730Z,94.20
2023-12-07T09:33:21.901Z,95.40
2023-12-07T09:35:53.038Z,96.10
2023-12-07T09:38:22.871Z,96.80
2023-12-07T09:40:56.746Z,95.20
2023-12-07T09:43:26.492Z,95.10
2023-12-07T09:45:57.918Z,95.00
2023-12-07T09:48:27.883Z,93.50
2023-12-07T09:50:59.583Z,93.70
2023-12-07T09:53:30.742Z,93.40
2023-12-07T09:56:00.728Z,92.90
2023-12-07T09:58:38.558Z,93.10
2023-12-07T10:01:16.464Z,91.30
2023-12-07T10:03:49.614Z,92.20
2023-12-07T10:08:49.342Z,93.20
2023-12-07T10:13:49.950Z,91.70
2023-12-07T10:16:21.281Z,93.20
2023-12-07T10:18:51.622Z,80.00
2023-12-07T10:21:35.653Z,80.10
2023-12-07T10:24:06.252Z,79.60
2023-12-07T10:26:38.495Z,77.30
2023-12-07T10:29:17.563Z,76.80
2023-12-07T10:32:04.994Z,74.20
2023-12-07T10:34:37.512Z,74.50
2023-12-07T10:37:09.959Z,75.20
2023-12-07T10:39:39.822Z,71.30
2023-12-07T10:42:13.857Z,71.90
2023-12-07T10:44:45.604Z,71.60
2023-12-07T10:47:18.221Z,71.80
2023-12-07T10:49:54.815Z,75.00
2023-12-07T10:52:28.304Z,73.30
2023-12-07T10:55:06.020Z,72.20
2023-12-07T10:57:38.964Z,71.90
2023-12-07T11:00:10.732Z,73.20
2023-12-07T11:05:14.285Z,67.80
2023-12-07T11:07:53.351Z,69.40
2023-12-07T11:10:30.882Z,69.20
2023-12-07T11:13:16.817Z,68.50
2023-12-07T11:15:49.401Z,64.40
2023-12-07T11:18:21.786Z,64.30
2023-12-07T11:20:54.341Z,62.00
2023-12-07T11:23:25.095Z,61.00
2023-12-07T11:25:57.985Z,60.90
2023-12-07T11:28:44.345Z,60.20
2023-12-07T11:31:14.197Z,59.70
2023-12-07T11:33:47.011Z,57.10
2023-12-07T11:39:29.952Z,57.80
2023-12-07T11:42:11.021Z,56.80
2023-12-07T11:44:43.453Z,55.30
2023-12-07T11:47:19.291Z,55.30
2023-12-07T11:49:51.700Z,54.50
2023-12-07T11:52:23.458Z,54.30
2023-12-07T11:54:54.428Z,54.00
2023-12-07T11:57:24.936Z,53.70
2023-12-07T11:59:56.029Z,53.70
2023-12-07T12:02:27.074Z,53.80
2023-12-07T12:05:01.519Z,51.30
2023-12-07T12:07:31.854Z,51.20
2023-12-07T12:10:06.057Z,49.90
2023-12-07T12:12:37.481Z,50.50
2023-12-07T12:15:08.732Z,49.80
2023-12-07T12:17:39.916Z,49.00
2023-12-07T12:20:18.704Z,47.50
2023-12-07T12:22:49.801Z,46.30
2023-12-07T12:25:22.862Z,45.70
2023-12-07T12:27:55.712Z,45.30
2023-12-07T12:30:26.127Z,44.70
2023-12-07T12:32:56.911Z,44.80
2023-12-07T12:35:28.797Z,44.70
2023-12-07T12:37:59.840Z,43.70
2023-12-07T12:40:33.763Z,42.80
2023-12-07T12:43:04.187Z,41.00
2023-12-07T12:45:36.902Z,40.50
2023-12-07T12:48:09.578Z,40.30
2023-12-07T12:50:44.394Z,40.40
2023-12-07T12:53:15.648Z,40.20
2023-12-07T12:55:46.036Z,40.10
2023-12-07T12:58:18.942Z,39.60
2023-12-07T13:00:49.503Z,39.30
2023-12-07T13:03:20.636Z,39.20
2023-12-07T13:05:53.491Z,38.50
2023-12-07T13:08:23.981Z,38.60
2023-12-07T13:10:54.244Z,38.40
2023-12-07T13:13:24.335Z,38.20
2023-12-07T13:15:53.999Z,38.50
2023-12-07T13:18:24.385Z,40.70
2023-12-07T13:20:56.957Z,41.20
2023-12-07T13:23:27.410Z,42.10
2023-12-07T13:25:57.963Z,38.50
2023-12-07T13:28:30.050Z,41.70
2023-12-07T13:31:00.455Z,36.60
2023-12-07T13:33:33.756Z,36.50
2023-12-07T13:36:09.314Z,36.30
2023-12-07T13:38:39.605Z,36.10
2023-12-07T13:41:09.731Z,36.10
2023-12-07T13:43:39.978Z,36.20
2023-12-07T13:46:09.651Z,36.10
2023-12-07T13:48:40.033Z,35.90
2023-12-07T13:51:11.410Z,36.00
2023-12-07T13:53:41.916Z,38.00
2023-12-07T13:56:13.102Z,40.80
2023-12-07T13:58:42.993Z,43.90
2023-12-07T14:01:12.990Z,42.70
2023-12-07T14:03:43.247Z,36.50
2023-12-07T14:06:21.896Z,36.10
2023-12-07T14:08:58.049Z,36.20
2023-12-07T14:11:28.363Z,35.50
2023-12-07T14:13:59.635Z,35.20
2023-12-07T14:16:42.805Z,35.70
2023-12-07T14:19:21.547Z,35.70
2023-12-07T14:21:55.889Z,34.90
2023-12-07T14:24:27.509Z,35.40
2023-12-07T14:26:58.593Z,35.60
2023-12-07T14:29:29.282Z,35.50
2023-12-07T14:32:02.763Z,35.60
2023-12-07T14:34:36.118Z,35.40
2023-12-07T14:37:09.773Z,34.70
2023-12-07T14:39:40.216Z,35.10
2023-12-07T14:42:10.825Z,35.10
2023-12-07T14:44:40.352Z,34.50
2023-12-07T14:47:10.474Z,34.60
2023-12-07T14:49:42.034Z,35.20
2023-12-07T14:52:22.712Z,36.40
2023-12-07T14:54:54.362Z,37.00
2023-12-07T14:57:25.063Z,37.60
2023-12-07T14:59:57.400Z,38.30
2023-12-07T15:02:28.865Z,39.70
2023-12-07T15:05:00.544Z,41.20
2023-12-07T15:07:32.202Z,43.80
2023-12-07T15:10:04.878Z,45.90
2023-12-07T15:12:35.163Z,48.90
2023-12-07T15:15:07.619Z,52.50
2023-12-07T15:17:38.976Z,56.00
2023-12-07T15:20:10.389Z,60.00
2023-12-07T15:22:43.410Z,63.20
2023-12-07T15:25:15.062Z,66.00
2023-12-07T15:27:48.451Z,69.30
2023-12-07T15:30:19.462Z,71.80
2023-12-07T15:32:49.717Z,75.10
2023-12-07T15:35:21.571Z,77.80
2023-12-07T15:37:55.138Z,79.80
2023-12-07T15:40:25.880Z,82.10
2023-12-07T15:42:56.941Z,83.90
2023-12-07T15:45:28.055Z,85.50
2023-12-07T15:47:58.629Z,88.00
2023-12-07T15:50:34.035Z,90.00
2023-12-07T15:53:10.386Z,90.60
2023-12-07T15:55:41.315Z,90.90
2023-12-07T15:58:12.659Z,91.00
2023-12-07T16:00:44.442Z,91.60
2023-12-07T16:03:15.262Z,92.50
2023-12-07T16:05:46.379Z,93.30
2023-12-07T16:08:19.899Z,93.70
2023-12-07T16:10:50.854Z,93.70
2023-12-07T16:13:21.587Z,93.80
2023-12-07T16:15:53.827Z,94.40
2023-12-07T16:18:24.731Z,95.10
2023-12-07T16:20:55.859Z,95.70
2023-12-07T16:23:28.002Z,96.30
2023-12-07T16:26:00.892Z,96.70
2023-12-07T16:28:32.116Z,96.80
2023-12-07T16:31:03.120Z,97.00
2023-12-07T16:33:33.970Z,96.90
2023-12-07T16:36:08.137Z,96.80
2023-12-07T16:38:45.100Z,98.30
2023-12-07T16:41:16.141Z,98.70
2023-12-07T16:43:46.123Z,98.90
2023-12-07T16:46:17.201Z,99.50
2023-12-07T16:48:47.726Z,99.10
2023-12-07T16:51:19.072Z,98.50
2023-12-07T16:53:52.398Z,98.30
2023-12-07T16:56:23.645Z,98.60
2023-12-07T16:58:55.469Z,99.00
2023-12-07T17:01:27.526Z,98.90
2023-12-07T17:03:57.875Z,99.10
2023-12-07T17:06:29.106Z,99.00
2023-12-07T17:09:08.174Z,99.30
2023-12-07T17:11:45.765Z,99.60
2023-12-07T17:14:16.354Z,99.90
2023-12-07T17:16:46.979Z,99.40
2023-12-07T17:19:18.557Z,99.10
2023-12-07T17:21:52.553Z,99.00
2023-12-07T17:24:25.527Z,99.40
2023-12-07T17:26:56.095Z,99.30
2023-12-07T17:29:26.757Z,99.70
2023-12-07T17:31:58.714Z,99.90
2023-12-07T17:34:30.625Z,99.60
2023-12-07T17:37:01.037Z,99.90
2023-12-07T17:39:33.511Z,99.90
2023-12-07T17:42:04.210Z,99.90
2023-12-07T17:44:34.491Z,99.90
2023-12-07T17:47:05.116Z,99.90
2023-12-07T17:49:35.777Z,99.90
2023-12-07T17:52:07.487Z,99.90
2023-12-07T17:54:39.656Z,99.90
2023-12-07T17:57:10.339Z,99.90
2023-12-07T17:59:41.270Z,99.90
2023-12-07T18:02:11.247Z,99.90
2023-12-07T18:04:41.969Z,99.90
2023-12-07T18:07:13.119Z,99.90
2023-12-07T18:09:45.275Z,99.90
2023-12-07T18:12:15.516Z,99.90
2023-12-07T18:14:46.380Z,99.90
2023-12-07T18:17:22.358Z,99.90
2023-12-07T18:22:28.054Z,99.90
2023-12-07T18:25:00.739Z,99.90
2023-12-07T18:27:35.264Z,99.90
2023-12-07T18:30:09.858Z,99.90
2023-12-07T18:32:40.754Z,99.90
2023-12-07T18:35:12.901Z,99.90
2023-12-07T18:37:43.651Z,99.90
2023-12-07T18:40:16.043Z,99.90
2023-12-07T18:42:46.316Z,99.90
2023-12-07T18:45:16.432Z,99.90
2023-12-07T18:47:46.858Z,99.90
2023-12-07T18:50:17.906Z,99.50
2023-12-07T18:52:48.128Z,98.40
2023-12-07T18:55:19.570Z,97.40
2023-12-07T18:57:51.223Z,96.20
2023-12-07T19:00:23.194Z,95.40
2023-12-07T19:02:54.238Z,94.00
2023-12-07T19:05:24.748Z,93.30
2023-12-07T19:07:55.500Z,92.50
2023-12-07T19:10:26.856Z,91.90
2023-12-07T19:13:00.037Z,91.60
2023-12-07T19:15:31.583Z,91.10
2023-12-07T19:18:02.327Z,91.00
2023-12-07T19:20:34.624Z,91.40
2023-12-07T19:23:06.247Z,91.20
2023-12-07T19:25:52.353Z,91.00
2023-12-07T19:28:23.376Z,90.80
2023-12-07T19:30:53.907Z,91.10
2023-12-07T19:33:26.582Z,92.00
2023-12-07T19:36:04.766Z,91.80
2023-12-07T19:38:38.341Z,92.40
2023-12-07T19:41:18.753Z,92.80
2023-12-07T19:43:55.239Z,92.10
2023-12-07T19:46:27.090Z,92.30
2023-12-07T19:48:58.575Z,92.50
2023-12-07T19:51:28.545Z,93.00
2023-12-07T19:54:00.524Z,93.30
2023-12-07T19:56:33.621Z,93.50
2023-12-07T19:59:04.226Z,93.60
2023-12-07T20:01:34.874Z,93.80
2023-12-07T20:04:05.167Z,92.40
2023-12-07T20:06:39.627Z,92.10
2023-12-07T20:09:10.629Z,92.20
2023-12-07T20:11:42.052Z,92.80
2023-12-07T20:14:14.873Z,93.00
2023-12-07T20:16:47.347Z,92.70
2023-12-07T20:19:19.648Z,92.70
2023-12-07T20:21:50.356Z,92.60
2023-12-07T20:24:22.339Z,92.30
2023-12-07T20:26:53.898Z,91.90
2023-12-07T20:29:27.688Z,91.20
2023-12-07T20:31:58.099Z,90.50
2023-12-07T20:34:32.902Z,90.30
2023-12-07T20:37:04.712Z,90.20
2023-12-07T20:39:35.021Z,90.00
2023-12-07T20:42:09.040Z,90.30
2023-12-07T20:44:39.275Z,90.40
2023-12-07T20:47:08.760Z,90.40
2023-12-07T20:49:40.212Z,90.60
2023-12-07T20:52:13.720Z,90.70
2023-12-07T20:54:44.133Z,90.70
2023-12-07T20:57:16.979Z,90.40
2023-12-07T20:59:47.557Z,90.40
2023-12-07T21:02:17.687Z,90.40
2023-12-07T21:04:47.611Z,90.50
2023-12-07T21:07:18.673Z,90.60
2023-12-07T21:09:48.310Z,90.30
2023-12-07T21:12:20.100Z,90.30
2023-12-07T21:14:50.168Z,90.10
2023-12-07T21:17:20.303Z,90.20
2023-12-07T21:19:49.992Z,90.10
2023-12-07T21:22:20.863Z,89.10
2023-12-07T21:24:50.781Z,88.00
2023-12-07T21:27:23.575Z,87.40
2023-12-07T21:29:53.533Z,87.00
2023-12-07T21:32:23.995Z,86.30
2023-12-07T21:34:58.420Z,85.90
2023-12-07T21:37:29.302Z,84.40
2023-12-07T21:39:59.885Z,83.10
2023-12-07T21:42:31.326Z,82.30
2023-12-07T21:45:01.688Z,82.50
2023-12-07T21:47:31.861Z,82.10
2023-12-07T21:50:01.720Z,81.90
2023-12-07T21:52:31.543Z,81.60
2023-12-07T21:55:01.313Z,81.30
2023-12-07T21:57:32.461Z,80.90
2023-12-07T22:00:03.254Z,80.90
2023-12-07T22:02:42.654Z,79.60
2023-12-07T22:05:12.781Z,78.70
2023-12-07T22:07:42.568Z,78.80
2023-12-07T22:10:18.775Z,79.50
2023-12-07T22:12:58.781Z,79.40
2023-12-07T22:15:30.437Z,78.80
2023-12-07T22:18:01.495Z,78.10
2023-12-07T22:20:32.386Z,78.00
2023-12-07T22:23:02.327Z,76.90
2023-12-07T22:25:32.164Z,75.70
2023-12-07T22:28:03.668Z,74.60
2023-12-07T22:30:34.515Z,73.00
2023-12-07T22:33:04.474Z,72.00
2023-12-07T22:35:35.071Z,72.00
2023-12-07T22:38:04.998Z,72.50
2023-12-07T22:40:36.622Z,72.70
2023-12-07T22:43:08.484Z,72.30
2023-12-07T22:45:38.129Z,71.50
2023-12-07T22:48:09.011Z,72.10
2023-12-07T22:50:39.205Z,72.20
2023-12-07T22:53:08.972Z,72.40
2023-12-07T22:55:39.183Z,73.60
2023-12-07T22:58:10.137Z,74.70
2023-12-07T23:00:42.439Z,74.40
2023-12-07T23:03:12.531Z,74.00
2023-12-07T23:05:42.540Z,74.20
2023-12-07T23:08:12.135Z,73.40
2023-12-07T23:10:41.958Z,74.10
2023-12-07T23:13:12.998Z,74.10
2023-12-07T23:15:43.005Z,74.00
2023-12-07T23:18:13.082Z,74.80
2023-12-07T23:20:44.026Z,75.80
2023-12-07T23:23:13.870Z,74.70
2023-12-07T23:25:43.688Z,75.30
2023-12-07T23:28:14.514Z,75.50
2023-12-07T23:30:44.266Z,77.50
2023-12-07T23:33:13.973Z,79.10
2023-12-07T23:35:45.707Z,78.50
2023-12-07T23:38:15.939Z,79.20
2023-12-07T23:40:47.575Z,80.90
2023-12-07T23:43:19.946Z,81.60
2023-12-07T23:45:50.480Z,83.00
2023-12-07T23:48:21.832Z,82.70
2023-12-07T23:50:51.850Z,83.20
2023-12-07T23:53:21.548Z,82.90
2023-12-07T23:55:51.663Z,85.10
2023-12-07T23:58:23.419Z,85.00
